createdAt,value
2019-05-12T00:00:39.390Z,61.77
2019-05-12T00:03:13.873Z,61.84
2019-05-12T00:05:48.315Z,61.84
2019-05-12T00:08:22.262Z,61.86
2019-05-12T00:10:58.288Z,61.86
2019-05-12T00:13:32.243Z,61.88
2019-05-12T00:16:08.636Z,61.89
2019-05-12T00:18:42.246Z,61.83
2019-05-12T00:21:17.721Z,61.83
2019-05-12T00:24:09.424Z,61.85
2019-05-12T00:26:43.647Z,61.84
2019-05-12T00:29:18.494Z,61.87
2019-05-12T00:31:53.050Z,61.83
2019-05-12T00:34:28.874Z,61.81
2019-05-12T00:37:02.405Z,61.90
2019-05-12T00:39:38.249Z,61.89
2019-05-12T00:42:11.859Z,61.85
2019-05-12T00:44:47.899Z,61.90
2019-05-12T00:47:21.427Z,61.81
2019-05-12T00:49:55.495Z,61.87
2019-05-12T00:52:28.726Z,61.76
2019-05-12T00:55:02.897Z,61.85
2019-05-12T00:57:38.354Z,61.92
2019-05-12T01:00:12.500Z,61.88
2019-05-12T01:02:45.754Z,61.95
2019-05-12T01:05:19.771Z,61.98
2019-05-12T01:07:52.956Z,61.99
2019-05-12T01:10:28.535Z,61.93
2019-05-12T01:13:02.528Z,61.93
2019-05-12T01:15:37.753Z,62.01
2019-05-12T01:18:12.136Z,62.08
2019-05-12T01:20:47.919Z,62.10
2019-05-12T01:23:23.546Z,62.07
2019-05-12T01:25:58.546Z,62.09
2019-05-12T01:28:32.686Z,62.12
2019-05-12T01:31:08.536Z,62.09
2019-05-12T01:33:42.493Z,62.06
2019-05-12T01:36:18.144Z,62.02
2019-05-12T01:38:52.169Z,62.02
2019-05-12T01:41:28.491Z,62.03
2019-05-12T01:44:01.870Z,62.04
2019-05-12T01:46:35.028Z,62.15
2019-05-12T01:49:09.121Z,62.20
2019-05-12T01:51:43.106Z,62.24
2019-05-12T01:54:18.860Z,62.14
2019-05-12T01:56:52.508Z,62.22
2019-05-12T01:59:28.630Z,62.16
2019-05-12T02:02:02.160Z,62.20
2019-05-12T02:04:39.572Z,62.23
2019-05-12T02:07:13.805Z,62.24
2019-05-12T02:09:48.105Z,62.29
2019-05-12T02:12:21.944Z,62.25
2019-05-12T02:14:55.782Z,62.26
2019-05-12T02:17:30.173Z,62.29
2019-05-12T02:20:07.730Z,62.40
2019-05-12T02:22:41.524Z,62.43
2019-05-12T02:25:14.918Z,62.51
2019-05-12T02:27:48.815Z,62.52
2019-05-12T02:30:23.595Z,62.52
2019-05-12T02:32:59.132Z,62.56
2019-05-12T02:35:35.450Z,62.60
2019-05-12T02:38:08.739Z,62.59
2019-05-12T02:40:44.675Z,62.71
2019-05-12T02:43:16.866Z,62.73
2019-05-12T02:45:50.766Z,62.83
2019-05-12T02:48:24.734Z,62.92
2019-05-12T02:50:57.826Z,62.91
2019-05-12T02:53:34.928Z,62.98
2019-05-12T02:56:09.916Z,63.00
2019-05-12T02:58:45.396Z,63.01
2019-05-12T03:01:24.388Z,63.02
2019-05-12T03:04:00.988Z,63.01
2019-05-12T03:06:36.628Z,63.05
2019-05-12T03:09:10.587Z,63.05
2019-05-12T03:11:46.103Z,63.08
2019-05-12T03:14:20.193Z,63.06
2019-05-12T03:16:54.156Z,63.17
2019-05-12T03:19:28.056Z,63.11
2019-05-12T03:22:04.800Z,63.14
2019-05-12T03:24:37.463Z,63.22
2019-05-12T03:27:14.602Z,63.21
2019-05-12T03:29:47.097Z,63.25
2019-05-12T03:32:20.131Z,63.29
2019-05-12T03:34:57.851Z,63.27
2019-05-12T03:37:31.293Z,63.31
2019-05-12T03:40:07.272Z,63.34
2019-05-12T03:42:44.198Z,63.37
2019-05-12T03:45:16.928Z,63.35
2019-05-12T03:47:50.008Z,63.39
2019-05-12T03:50:24.533Z,63.42
2019-05-12T03:52:58.514Z,63.51
2019-05-12T03:55:38.044Z,63.50
2019-05-12T03:58:08.141Z,63.57
2019-05-12T04:00:44.694Z,63.61
2019-05-12T04:03:18.876Z,63.71
2019-05-12T04:05:55.373Z,63.67
2019-05-12T04:08:28.701Z,63.76
2019-05-12T04:11:05.287Z,63.78
2019-05-12T04:13:38.233Z,63.80
2019-05-12T04:16:12.428Z,63.89
2019-05-12T04:18:46.249Z,63.87
2019-05-12T04:21:24.083Z,63.94
2019-05-12T04:23:57.204Z,63.94
2019-05-12T04:26:31.052Z,63.98
2019-05-12T04:29:05.357Z,64.05
2019-05-12T04:31:39.428Z,64.03
2019-05-12T04:34:17.903Z,64.03
2019-05-12T04:36:49.022Z,64.03
2019-05-12T04:39:25.099Z,64.05
2019-05-12T04:41:57.597Z,64.05
2019-05-12T04:44:34.558Z,64.02
2019-05-12T04:47:07.054Z,64.04
2019-05-12T04:49:44.986Z,64.05
2019-05-12T04:52:17.519Z,64.02
2019-05-12T04:54:51.385Z,64.11
2019-05-12T04:57:25.760Z,64.07
2019-05-12T04:59:59.712Z,64.04
2019-05-12T05:02:36.384Z,63.99
2019-05-12T05:05:09.579Z,63.93
2019-05-12T05:07:44.709Z,63.96
2019-05-12T05:10:19.007Z,64.01
2019-05-12T05:12:54.241Z,63.99
2019-05-12T05:15:28.218Z,64.07
2019-05-12T05:18:06.062Z,64.02
2019-05-12T05:20:37.942Z,64.03
2019-05-12T05:23:11.130Z,64.02
2019-05-12T05:25:45.037Z,64.04
2019-05-12T05:28:18.928Z,64.08
2019-05-12T05:30:53.543Z,64.15
2019-05-12T05:33:27.979Z,64.11
2019-05-12T05:36:03.493Z,64.00
2019-05-12T05:38:37.725Z,63.87
2019-05-12T05:41:10.854Z,63.89
2019-05-12T05:43:56.387Z,63.82
2019-05-12T05:46:25.473Z,63.82
2019-05-12T05:48:59.404Z,63.84
2019-05-12T05:51:33.659Z,63.78
2019-05-12T05:54:07.880Z,63.74
2019-05-12T05:56:48.554Z,63.58
2019-05-12T05:59:15.766Z,63.43
2019-05-12T06:01:52.479Z,63.46
2019-05-12T06:04:25.101Z,63.22
2019-05-12T06:06:59.055Z,63.24
2019-05-12T06:09:33.939Z,63.29
2019-05-12T06:12:09.979Z,63.06
2019-05-12T06:14:46.634Z,62.99
2019-05-12T06:17:19.182Z,62.95
2019-05-12T06:19:53.849Z,63.05
2019-05-12T06:22:29.000Z,62.82
2019-05-12T06:25:04.825Z,62.84
2019-05-12T06:27:38.357Z,62.65
2019-05-12T06:30:14.854Z,62.67
2019-05-12T06:32:51.833Z,62.39
2019-05-12T06:35:24.756Z,62.33
2019-05-12T06:38:01.843Z,62.08
2019-05-12T06:40:40.409Z,61.87
2019-05-12T06:43:09.956Z,61.82
2019-05-12T06:45:45.674Z,61.80
2019-05-12T06:48:25.765Z,61.51
2019-05-12T06:50:55.270Z,61.45
2019-05-12T06:53:31.071Z,61.55
2019-05-12T06:56:09.356Z,61.45
2019-05-12T06:58:40.312Z,61.26
2019-05-12T07:01:19.228Z,61.01
2019-05-12T07:03:50.041Z,60.93
2019-05-12T07:06:24.805Z,60.78
2019-05-12T07:09:06.443Z,60.92
2019-05-12T07:11:42.428Z,61.02
2019-05-12T07:14:18.859Z,60.93
2019-05-12T07:16:46.737Z,60.91
2019-05-12T07:19:24.965Z,60.99
2019-05-12T07:21:59.836Z,60.47
2019-05-12T07:24:34.135Z,60.83
2019-05-12T07:27:09.314Z,60.77
2019-05-12T07:29:43.661Z,60.68
2019-05-12T07:32:21.683Z,60.47
2019-05-12T07:34:54.374Z,60.40
2019-05-12T07:37:30.061Z,60.44
2019-05-12T07:40:07.881Z,60.55
2019-05-12T07:42:43.969Z,60.00
2019-05-12T07:45:22.179Z,60.09
2019-05-12T07:47:54.234Z,60.00
2019-05-12T07:50:28.094Z,59.90
2019-05-12T07:53:04.146Z,59.80
2019-05-12T07:55:39.511Z,59.62
2019-05-12T07:58:17.830Z,59.59
2019-05-12T08:00:53.878Z,59.35
2019-05-12T08:03:24.466Z,59.13
2019-05-12T08:06:01.634Z,59.00
2019-05-12T08:08:34.073Z,59.02
2019-05-12T08:11:09.228Z,59.06
2019-05-12T08:13:43.825Z,58.76
2019-05-12T08:16:19.474Z,58.64
2019-05-12T08:18:53.548Z,58.52
2019-05-12T08:21:27.306Z,58.15
2019-05-12T08:24:01.180Z,58.24
2019-05-12T08:26:34.986Z,58.25
2019-05-12T08:29:10.432Z,58.19
2019-05-12T08:31:44.549Z,57.98
2019-05-12T08:34:18.408Z,57.87
2019-05-12T08:36:56.905Z,57.24
2019-05-12T08:39:27.907Z,57.22
2019-05-12T08:42:04.063Z,57.24
2019-05-12T08:44:40.621Z,56.92
2019-05-12T08:47:15.207Z,57.05
2019-05-12T08:49:55.416Z,56.91
2019-05-12T08:52:24.856Z,56.78
2019-05-12T08:54:58.686Z,56.85
2019-05-12T08:57:40.537Z,56.87
2019-05-12T09:00:08.931Z,56.79
2019-05-12T09:02:48.731Z,56.57
2019-05-12T09:05:18.419Z,56.59
2019-05-12T09:07:54.150Z,56.40
2019-05-12T09:10:28.114Z,56.53
2019-05-12T09:13:04.063Z,56.36
2019-05-12T09:15:37.604Z,56.36
2019-05-12T09:18:11.607Z,56.40
2019-05-12T09:20:51.354Z,56.50
2019-05-12T09:23:21.121Z,56.59
2019-05-12T09:25:57.158Z,56.61
2019-05-12T09:28:44.322Z,56.66
2019-05-12T09:31:07.275Z,56.62
2019-05-12T09:33:41.218Z,56.71
2019-05-12T09:36:19.927Z,56.76
2019-05-12T09:38:53.622Z,56.45
2019-05-12T09:41:26.509Z,56.33
2019-05-12T09:44:01.868Z,56.31
2019-05-12T09:46:37.714Z,56.29
2019-05-12T09:49:14.127Z,56.04
2019-05-12T09:51:48.036Z,56.07
2019-05-12T09:54:27.797Z,55.86
2019-05-12T09:56:59.610Z,55.58
2019-05-12T09:59:34.521Z,55.64
2019-05-12T10:02:15.527Z,55.43
2019-05-12T10:04:50.248Z,55.38
2019-05-12T10:07:23.162Z,55.52
2019-05-12T10:09:59.201Z,55.38
2019-05-12T10:12:38.794Z,55.21
2019-05-12T10:15:13.506Z,55.09
2019-05-12T10:17:48.750Z,55.13
2019-05-12T10:20:24.168Z,55.05
2019-05-12T10:22:59.197Z,54.76
2019-05-12T10:25:34.161Z,54.49
2019-05-12T10:28:15.355Z,54.73
2019-05-12T10:30:47.046Z,54.55
2019-05-12T10:33:23.263Z,54.59
2019-05-12T10:35:59.336Z,54.83
2019-05-12T10:38:34.352Z,54.72
2019-05-12T10:41:08.840Z,54.64
2019-05-12T10:43:43.325Z,54.40
2019-05-12T10:46:23.747Z,54.51
2019-05-12T10:48:54.121Z,54.48
2019-05-12T10:51:28.049Z,54.40
2019-05-12T10:54:12.087Z,54.51
2019-05-12T10:56:37.769Z,54.36
2019-05-12T10:59:13.358Z,54.21
2019-05-12T11:01:49.181Z,54.09
2019-05-12T11:04:35.848Z,54.43
2019-05-12T11:06:59.328Z,54.58
2019-05-12T11:09:34.605Z,54.42
2019-05-12T11:12:09.112Z,54.24
2019-05-12T11:14:43.891Z,54.41
2019-05-12T11:17:18.213Z,54.22
2019-05-12T11:19:54.122Z,54.41
2019-05-12T11:22:28.298Z,54.21
2019-05-12T11:25:04.339Z,54.23
2019-05-12T11:27:38.244Z,54.06
2019-05-12T11:30:13.247Z,54.18
2019-05-12T11:32:47.289Z,54.23
2019-05-12T11:35:23.530Z,53.99
2019-05-12T11:37:57.099Z,54.07
2019-05-12T11:40:31.372Z,53.82
2019-05-12T11:43:06.006Z,53.78
2019-05-12T11:45:40.167Z,53.95
2019-05-12T11:48:14.374Z,54.03
2019-05-12T11:50:51.301Z,53.02
2019-05-12T11:53:31.205Z,52.78
2019-05-12T11:56:06.993Z,52.55
2019-05-12T11:58:41.367Z,52.18
2019-05-12T12:01:15.304Z,52.95
2019-05-12T12:03:51.511Z,52.80
2019-05-12T12:06:25.813Z,52.61
2019-05-12T12:09:00.183Z,52.24
2019-05-12T12:11:34.793Z,52.37
2019-05-12T12:14:10.611Z,52.25
2019-05-12T12:16:49.995Z,52.05
2019-05-12T12:19:26.196Z,51.62
2019-05-12T12:21:56.878Z,51.22
2019-05-12T12:24:31.591Z,50.90
2019-05-12T12:27:06.287Z,51.25
2019-05-12T12:29:40.967Z,51.46
2019-05-12T12:32:20.154Z,50.79
2019-05-12T12:34:54.457Z,51.09
2019-05-12T12:37:29.556Z,50.56
2019-05-12T12:40:04.860Z,50.73
2019-05-12T12:42:44.201Z,50.61
2019-05-12T12:45:16.377Z,50.06
2019-05-12T12:47:50.665Z,50.12
2019-05-12T12:50:30.876Z,49.31
2019-05-12T12:53:06.788Z,49.64
2019-05-12T12:55:47.604Z,49.75
2019-05-12T12:58:31.304Z,49.77
2019-05-12T13:01:08.410Z,49.93
2019-05-12T13:03:59.313Z,49.70
2019-05-12T13:06:34.585Z,49.21
2019-05-12T13:09:18.240Z,49.54
2019-05-12T13:11:46.159Z,49.60
2019-05-12T13:14:23.180Z,49.50
2019-05-12T13:16:57.147Z,49.71
2019-05-12T13:19:33.245Z,49.24
2019-05-12T13:22:09.030Z,49.02
2019-05-12T13:24:43.990Z,49.17
2019-05-12T13:27:19.225Z,48.97
2019-05-12T13:29:53.760Z,48.97
2019-05-12T13:32:32.069Z,48.83
2019-05-12T13:35:04.233Z,48.77
2019-05-12T13:37:38.439Z,49.23
2019-05-12T13:40:12.434Z,48.90
2019-05-12T13:42:46.283Z,49.11
2019-05-12T13:45:24.276Z,49.03
2019-05-12T13:47:59.529Z,48.96
2019-05-12T13:50:34.016Z,48.80
2019-05-12T13:53:10.153Z,49.13
2019-05-12T13:55:47.516Z,49.44
2019-05-12T13:58:20.198Z,49.31
2019-05-12T14:01:10.489Z,49.39
2019-05-12T14:03:30.589Z,49.47
2019-05-12T14:06:04.846Z,49.29
2019-05-12T14:08:38.942Z,49.82
2019-05-12T14:11:12.723Z,50.37
2019-05-12T14:13:46.729Z,50.27
2019-05-12T14:16:20.572Z,50.64
2019-05-12T14:18:56.904Z,51.13
2019-05-12T14:21:33.116Z,51.72
2019-05-12T14:24:05.910Z,51.53
2019-05-12T14:26:39.514Z,51.62
2019-05-12T14:29:14.695Z,51.78
2019-05-12T14:31:55.024Z,51.97
2019-05-12T14:34:25.066Z,51.79
2019-05-12T14:37:08.490Z,51.97
2019-05-12T14:39:34.976Z,52.06
2019-05-12T14:42:08.983Z,51.53
2019-05-12T14:44:45.003Z,51.66
2019-05-12T14:47:19.337Z,51.71
2019-05-12T14:49:54.399Z,51.62
2019-05-12T14:52:27.418Z,51.55
2019-05-12T14:55:03.334Z,51.80
2019-05-12T14:57:39.208Z,52.02
2019-05-12T15:00:17.313Z,52.04
2019-05-12T15:02:48.388Z,52.02
2019-05-12T15:05:25.347Z,51.80
2019-05-12T15:08:00.378Z,51.64
2019-05-12T15:10:34.218Z,51.38
2019-05-12T15:13:08.208Z,51.32
2019-05-12T15:15:44.912Z,51.38
2019-05-12T15:18:19.049Z,51.51
2019-05-12T15:20:54.323Z,51.47
2019-05-12T15:23:32.603Z,51.51
2019-05-12T15:26:04.383Z,51.36
2019-05-12T15:28:39.300Z,51.14
2019-05-12T15:31:14.379Z,51.35
2019-05-12T15:33:48.899Z,51.36
2019-05-12T15:36:24.487Z,51.48
2019-05-12T15:38:59.094Z,51.51
2019-05-12T15:41:33.429Z,51.51
2019-05-12T15:44:08.178Z,51.61
2019-05-12T15:46:45.945Z,51.72
2019-05-12T15:49:16.412Z,51.75
2019-05-12T15:51:53.984Z,51.86
2019-05-12T15:54:26.256Z,51.88
2019-05-12T15:57:00.346Z,52.05
2019-05-12T15:59:34.526Z,52.10
2019-05-12T16:02:14.635Z,52.43
2019-05-12T16:04:48.233Z,52.84
2019-05-12T16:07:20.231Z,52.91
2019-05-12T16:09:54.793Z,53.07
2019-05-12T16:12:29.046Z,53.26
2019-05-12T16:15:04.543Z,53.28
2019-05-12T16:17:38.575Z,53.33
2019-05-12T16:20:14.124Z,53.45
2019-05-12T16:22:48.534Z,53.62
2019-05-12T16:25:29.098Z,53.49
2019-05-12T16:27:58.111Z,53.46
2019-05-12T16:30:33.977Z,53.62
2019-05-12T16:33:12.116Z,53.56
2019-05-12T16:35:44.343Z,53.62
2019-05-12T16:38:20.066Z,53.71
2019-05-12T16:40:54.219Z,53.87
2019-05-12T16:43:29.433Z,54.00
2019-05-12T16:46:05.834Z,54.08
2019-05-12T16:48:42.046Z,54.19
2019-05-12T16:51:15.514Z,54.37
2019-05-12T16:53:49.317Z,54.48
2019-05-12T16:56:27.886Z,54.57
2019-05-12T16:58:59.407Z,54.52
2019-05-12T17:01:33.567Z,54.54
2019-05-12T17:04:07.930Z,54.57
2019-05-12T17:06:45.301Z,54.59
2019-05-12T17:09:18.466Z,54.55
2019-05-12T17:11:55.370Z,54.61
2019-05-12T17:14:28.899Z,54.77
2019-05-12T17:17:03.797Z,54.69
2019-05-12T17:19:38.077Z,54.71
2019-05-12T17:22:13.266Z,54.89
2019-05-12T17:24:46.036Z,55.09
2019-05-12T17:27:24.392Z,55.01
2019-05-12T17:29:55.670Z,55.15
2019-05-12T17:32:29.832Z,55.08
2019-05-12T17:35:04.365Z,54.76
2019-05-12T17:37:41.371Z,54.51
2019-05-12T17:40:18.367Z,54.47
2019-05-12T17:42:50.584Z,54.21
2019-05-12T17:45:24.812Z,54.30
2019-05-12T17:48:02.804Z,54.21
2019-05-12T17:50:40.605Z,54.13
2019-05-12T17:53:14.082Z,54.26
2019-05-12T17:55:53.978Z,54.38
2019-05-12T17:58:24.463Z,54.40
2019-05-12T18:01:00.544Z,54.37
2019-05-12T18:03:39.236Z,54.38
2019-05-12T18:06:11.348Z,54.51
2019-05-12T18:08:46.464Z,54.55
2019-05-12T18:11:20.922Z,54.59
2019-05-12T18:14:02.350Z,54.58
2019-05-12T18:16:34.318Z,54.58
2019-05-12T18:19:17.682Z,54.61
2019-05-12T18:21:47.171Z,54.56
2019-05-12T18:24:24.051Z,54.66
2019-05-12T18:27:04.510Z,54.77
2019-05-12T18:29:34.859Z,54.88
2019-05-12T18:32:09.711Z,54.80
2019-05-12T18:34:44.622Z,54.90
2019-05-12T18:37:18.810Z,54.90
2019-05-12T18:39:53.560Z,54.88
2019-05-12T18:42:27.434Z,54.81
2019-05-12T18:45:11.623Z,54.81
2019-05-12T18:47:38.808Z,54.80
2019-05-12T18:50:14.126Z,54.85
2019-05-12T18:52:49.112Z,54.98
2019-05-12T18:55:23.547Z,54.99
2019-05-12T18:57:57.548Z,55.05
2019-05-12T19:00:33.799Z,55.14
2019-05-12T19:03:09.954Z,55.12
2019-05-12T19:05:43.964Z,55.06
2019-05-12T19:08:20.283Z,55.12
2019-05-12T19:10:53.723Z,55.23
2019-05-12T19:13:27.815Z,55.20
2019-05-12T19:16:02.850Z,55.22
2019-05-12T19:18:37.367Z,55.21
2019-05-12T19:21:18.367Z,55.32
2019-05-12T19:23:47.586Z,55.33
2019-05-12T19:26:21.487Z,55.40
2019-05-12T19:28:57.852Z,55.42
2019-05-12T19:31:33.331Z,55.50
2019-05-12T19:34:18.776Z,55.57
2019-05-12T19:36:44.902Z,55.56
2019-05-12T19:39:18.360Z,55.54
2019-05-12T19:41:51.478Z,55.67
2019-05-12T19:44:30.357Z,55.58
2019-05-12T19:47:01.050Z,55.67
2019-05-12T19:49:46.625Z,55.79
2019-05-12T19:52:10.852Z,55.76
2019-05-12T19:54:44.930Z,55.81
2019-05-12T19:57:21.811Z,55.91
2019-05-12T19:59:55.751Z,55.97
2019-05-12T20:02:28.675Z,56.10
2019-05-12T20:05:04.600Z,56.13
2019-05-12T20:07:39.026Z,56.15
2019-05-12T20:10:15.727Z,56.20
2019-05-12T20:12:48.788Z,56.32
2019-05-12T20:15:24.380Z,56.43
2019-05-12T20:17:58.787Z,56.50
2019-05-12T20:20:36.771Z,56.64
2019-05-12T20:23:08.651Z,56.70
2019-05-12T20:25:44.053Z,56.87
2019-05-12T20:28:17.184Z,56.98
2019-05-12T20:30:52.330Z,57.00
2019-05-12T20:33:26.806Z,57.12
2019-05-12T20:36:00.712Z,57.18
2019-05-12T20:38:36.649Z,57.28
2019-05-12T20:41:17.538Z,57.35
2019-05-12T20:43:45.765Z,57.49
2019-05-12T20:46:25.781Z,57.52
2019-05-12T20:48:55.423Z,57.67
2019-05-12T20:51:28.729Z,57.75
2019-05-12T20:54:06.554Z,57.88
2019-05-12T20:56:38.507Z,57.97
2019-05-12T20:59:13.800Z,58.07
2019-05-12T21:01:46.386Z,58.21
2019-05-12T21:04:22.201Z,58.35
2019-05-12T21:06:55.960Z,58.41
2019-05-12T21:09:30.533Z,58.46
2019-05-12T21:12:04.561Z,58.53
2019-05-12T21:14:44.617Z,58.62
2019-05-12T21:17:15.840Z,58.70
2019-05-12T21:19:56.860Z,58.76
2019-05-12T21:22:26.679Z,58.81
2019-05-12T21:25:00.322Z,58.88
2019-05-12T21:27:34.280Z,58.94
2019-05-12T21:30:11.769Z,59.06
2019-05-12T21:32:47.093Z,59.04
2019-05-12T21:35:22.644Z,59.16
2019-05-12T21:37:55.632Z,59.15
2019-05-12T21:40:30.743Z,59.23
2019-05-12T21:43:05.572Z,59.27
2019-05-12T21:45:38.885Z,59.26
2019-05-12T21:48:15.225Z,59.31
2019-05-12T21:50:48.573Z,59.38
2019-05-12T21:53:23.807Z,59.38
2019-05-12T21:56:03.854Z,59.43
2019-05-12T21:58:33.730Z,59.56
2019-05-12T22:01:09.845Z,59.62
2019-05-12T22:03:45.985Z,59.64
2019-05-12T22:06:21.737Z,59.71
2019-05-12T22:09:01.251Z,59.79
2019-05-12T22:11:34.582Z,59.80
2019-05-12T22:14:08.554Z,59.88
2019-05-12T22:16:46.826Z,59.95
2019-05-12T22:19:19.768Z,59.99
2019-05-12T22:21:53.789Z,59.97
2019-05-12T22:24:33.978Z,59.99
2019-05-12T22:27:04.791Z,59.95
2019-05-12T22:29:37.112Z,59.96
2019-05-12T22:32:11.016Z,59.92
2019-05-12T22:34:44.916Z,59.94
2019-05-12T22:37:18.916Z,59.98
2019-05-12T22:39:53.511Z,59.99
2019-05-12T22:42:27.526Z,59.97
2019-05-12T22:45:02.989Z,59.97
2019-05-12T22:47:37.112Z,59.98
2019-05-12T22:50:13.623Z,59.93
2019-05-12T22:52:49.357Z,59.90
2019-05-12T22:55:27.833Z,59.72
2019-05-12T22:57:59.231Z,59.58
2019-05-12T23:00:34.220Z,59.40
2019-05-12T23:03:11.653Z,59.32
2019-05-12T23:05:44.336Z,59.21
2019-05-12T23:08:17.360Z,59.20
2019-05-12T23:10:53.404Z,59.11
2019-05-12T23:13:26.777Z,59.08
2019-05-12T23:16:02.904Z,59.02
2019-05-12T23:18:36.464Z,58.85
2019-05-12T23:21:13.326Z,58.86
2019-05-12T23:23:49.834Z,58.92
2019-05-12T23:26:21.445Z,58.89
2019-05-12T23:28:55.255Z,58.87
2019-05-12T23:31:30.367Z,58.84
2019-05-12T23:34:06.431Z,58.85
2019-05-12T23:36:39.850Z,58.89
2019-05-12T23:39:14.354Z,58.91
2019-05-12T23:41:48.366Z,58.89
2019-05-12T23:44:23.986Z,58.93
2019-05-12T23:46:57.939Z,58.93
2019-05-12T23:49:33.645Z,58.94
2019-05-12T23:52:07.400Z,58.94
2019-05-12T23:54:41.216Z,58.96
2019-05-12T23:57:15.718Z,59.01
2019-05-12T23:59:49.908Z,59.01
